ADDS METAR Data

Data at: 0500 UTC 20 Apr 2018

METAR for:KTAN (Taunton Muni, MA, US)
Text:KTAN 200452Z AUTO 28009KT 10SM OVC050 04/M01 A2985 RMK AO2 SLP109 T00441006 400670006 $
Temperature: 4.4°C ( 40°F)
Dewpoint: -0.6°C ( 31°F) [RH = 70%]
Pressure (altimeter):29.85 inches Hg (1010.9 mb) [Sea level pressure: 1010.9 mb]
Winds:from the W (280 degrees) at 10 MPH (9 knots; 4.6 m/s)
Visibility:10 or more sm (16+ km)
Ceiling:5000 feet AGL
Clouds: overcast cloud deck at 5000 feet AGL
QC Flag:automated observation with no human augmentation; SOME DATA ABOVE MAY BE INACCURATE!!!"$" is an indication the sensor requires maintenance.